^^
Datos históricos de la estación: Murcia-Puente Tocinos
Diario Informe para Julio 10, 2019 Unidades:  Ambas    Ingés   Métrico
Diario Semanal Mensual Anual
  Máxima: Mínima: Promedio:
Temperatura: 79.3 °F /  26.3 °C 68.2 °F /  20.1 °C 72.7 °F /  22.6 °C
Punto de rocio: 65.7 °F /  18.7 °C 61.3 °F /  16.3 °C 64 °F /  17.8 °C
Humedad: 86% 56.6% 75%
Velocidad viento: 9.2mph /  14.8km/h - 3.7mph /  5.9km/h
Racha viento: 17.3mph /  27.8km/h - -
Viento- - Este
Presión: 30.1 in /  1020.2 hPa 30 in /  1016.9 hPa -
Precipitación: 0 in /  0.0 mm    
 
 
Tabla de datos para Julio 10, 2019
Hora Temperatura Punto de rocio Presión Viento Velocidad viento Racha viento Humedad Intensidad lluvia(por hora) Nubes
00:04 69.1 °F /  20.6 °C 63.7 °F /  17.6 °C 30in /  1017.0hPa NNE 4mph /  6.5km/h 6mph /  9.7km/h 83% 0in /  0.0mm
00:09 69.1 °F /  20.6 °C 63.7 °F /  17.6 °C 30in /  1016.9hPa NE 3.9mph /  6.3km/h 6mph /  9.7km/h 83.1% 0in /  0.0mm
00:14 68.9 °F /  20.5 °C 63.9 °F /  17.7 °C 30in /  1016.9hPa NE 3.6mph /  5.8km/h 6.2mph /  10km/h 84% 0in /  0.0mm
00:19 68.7 °F /  20.4 °C 63.7 °F /  17.6 °C 30in /  1016.9hPa NE 3.6mph /  5.8km/h 6mph /  9.7km/h 84% 0in /  0.0mm
00:24 68.7 °F /  20.4 °C 63.7 °F /  17.6 °C 30in /  1016.9hPa NE 3.6mph /  5.8km/h 6.9mph /  11.1km/h 84% 0in /  0.0mm
00:29 68.5 °F /  20.3 °C 63.5 °F /  17.5 °C 30in /  1016.9hPa NE 3.7mph /  5.9km/h 7mph /  11.3km/h 84% 0in /  0.0mm
00:34 68.5 °F /  20.3 °C 63.7 °F /  17.6 °C 30in /  1017.1hPa NE 4mph /  6.4km/h 6.4mph /  10.3km/h 84.5% 0in /  0.0mm
00:39 68.5 °F /  20.3 °C 63.9 °F /  17.7 °C 30in /  1017.1hPa NE 4mph /  6.5km/h 7mph /  11.3km/h 85% 0in /  0.0mm
00:44 68.5 °F /  20.3 °C 63.9 °F /  17.7 °C 30in /  1017.1hPa NE 4mph /  6.5km/h 7.4mph /  11.9km/h 85% 0in /  0.0mm
00:49 68.5 °F /  20.3 °C 63.9 °F /  17.7 °C 30in /  1017.2hPa NE 4.2mph /  6.8km/h 8.5mph /  13.7km/h 85% 0in /  0.0mm
00:54 68.5 °F /  20.3 °C 63.9 °F /  17.7 °C 30in /  1017.2hPa NE 5.2mph /  8.4km/h 9mph /  14.5km/h 85% 0in /  0.0mm
00:59 68.7 °F /  20.4 °C 63.9 °F /  17.7 °C 30in /  1017.2hPa NE 5mph /  8km/h 7mph /  11.3km/h 84.8% 0in /  0.0mm
01:04 68.7 °F /  20.4 °C 63.7 °F /  17.6 °C 30in /  1017.3hPa NNE 4.3mph /  6.9km/h 6mph /  9.7km/h 84% 0in /  0.0mm
01:09 68.7 °F /  20.4 °C 63.7 °F /  17.6 °C 30in /  1017.3hPa NE 4mph /  6.5km/h 5mph /  8km/h 84% 0in /  0.0mm
01:14 68.7 °F /  20.4 °C 63.7 °F /  17.6 °C 30in /  1017.3hPa North 2.9mph /  4.7km/h 5mph /  8km/h 84% 0in /  0.0mm
01:19 68.5 °F /  20.3 °C 63.5 °F /  17.5 °C 30in /  1017.3hPa NNO 2.7mph /  4.4km/h 5mph /  8km/h 84% 0in /  0.0mm
01:24 68.5 °F /  20.3 °C 63.7 °F /  17.6 °C 30in /  1017.2hPa NNO 2mph /  3.2km/h 3.5mph /  5.6km/h 84.8% 0in /  0.0mm
01:29 68.5 °F /  20.3 °C 63.9 °F /  17.7 °C 30in /  1017.2hPa NNO 2mph /  3.2km/h 3mph /  4.8km/h 85% 0in /  0.0mm
01:34 68.4 °F /  20.2 °C 63.7 °F /  17.6 °C 30in /  1017.3hPa NNO 1.8mph /  2.9km/h 3.5mph /  5.6km/h 85% 0in /  0.0mm
01:39 68.4 °F /  20.2 °C 63.7 °F /  17.6 °C 30in /  1017.3hPa NNO 1.7mph /  2.8km/h 3mph /  4.8km/h 85% 0in /  0.0mm
01:44 68.4 °F /  20.2 °C 63.7 °F /  17.6 °C 30in /  1017.3hPa NNO 1.4mph /  2.2km/h 2.9mph /  4.7km/h 85% 0in /  0.0mm
01:49 68.4 °F /  20.2 °C 63.7 °F /  17.6 °C 30in /  1017.4hPa NNO 1.4mph /  2.2km/h 3mph /  4.8km/h 85% 0in /  0.0mm
01:54 68.4 °F /  20.2 °C 63.7 °F /  17.6 °C 30in /  1017.4hPa NNO 1.4mph /  2.2km/h 3mph /  4.8km/h 85% 0in /  0.0mm
01:59 68.2 °F /  20.1 °C 63.7 °F /  17.6 °C 30in /  1017.4hPa NNO 1.1mph /  1.8km/h 2.4mph /  3.9km/h 85.4% 0in /  0.0mm
02:04 68.2 °F /  20.1 °C 63.9 °F /  17.7 °C 30.1in /  1017.6hPa Calm   2.9mph /  4.7km/h 86% 0in /  0.0mm
02:09 68.2 °F /  20.1 °C 63.9 °F /  17.7 °C 30.1in /  1017.6hPa Calm   3mph /  4.8km/h 86% 0in /  0.0mm
02:14 68.4 °F /  20.2 °C 63.9 °F /  17.7 °C 30.1in /  1017.6hPa Calm   2.4mph /  3.9km/h 86% 0in /  0.0mm
02:19 68.4 °F /  20.2 °C 64 °F /  17.8 °C 30.1in /  1017.7hPa NNO 0.2mph /  0.4km/h 2.4mph /  3.9km/h 86% 0in /  0.0mm
02:24 68.4 °F /  20.2 °C 64 °F /  17.8 °C 30.1in /  1017.7hPa NNO 1.4mph /  2.2km/h 2.4mph /  3.9km/h 86% 0in /  0.0mm
02:29 68.5 °F /  20.3 °C 64.2 °F /  17.9 °C 30.1in /  1017.7hPa NNO 1.4mph /  2.2km/h 2.4mph /  3.9km/h 86% 0in /  0.0mm
02:34 68.5 °F /  20.3 °C 64 °F /  17.8 °C 30.1in /  1017.8hPa NNO 1.4mph /  2.2km/h 2.3mph /  3.7km/h 85.7% 0in /  0.0mm
02:39 68.5 °F /  20.3 °C 63.9 °F /  17.7 °C 30.1in /  1017.8hPa NNO 1.1mph /  1.8km/h 3.5mph /  5.6km/h 85% 0in /  0.0mm
02:44 68.7 °F /  20.4 °C 64 °F /  17.8 °C 30.1in /  1017.8hPa Calm   3mph /  4.8km/h 85% 0in /  0.0mm
02:49 68.7 °F /  20.4 °C 64 °F /  17.8 °C 30.1in /  1017.8hPa Calm   2.4mph /  3.9km/h 85% 0in /  0.0mm
02:54 68.7 °F /  20.4 °C 64 °F /  17.8 °C 30.1in /  1017.7hPa Calm   2.4mph /  3.9km/h 85% 0in /  0.0mm
02:59 68.7 °F /  20.4 °C 64 °F /  17.8 °C 30.1in /  1017.7hPa Calm   2.4mph /  3.9km/h 85% 0in /  0.0mm
03:04 68.9 °F /  20.5 °C 64 °F /  17.8 °C 30.1in /  1017.7hPa Calm   2.3mph /  3.7km/h 85% 0in /  0.0mm
03:09 68.9 °F /  20.5 °C 64.2 °F /  17.9 °C 30.1in /  1017.6hPa Calm   2mph /  3.2km/h 85% 0in /  0.0mm
03:14 68.9 °F /  20.5 °C 64.2 °F /  17.9 °C 30.1in /  1017.6hPa Calm   2.9mph /  4.7km/h 85% 0in /  0.0mm
03:19 68.9 °F /  20.5 °C 64.2 °F /  17.9 °C 30.1in /  1017.6hPa NNO 0.2mph /  0.4km/h 3mph /  4.8km/h 85% 0in /  0.0mm
03:24 68.9 °F /  20.5 °C 64 °F /  17.8 °C 30.1in /  1017.6hPa NE 1.4mph /  2.2km/h 4.6mph /  7.4km/h 84.2% 0in /  0.0mm
03:29 68.7 °F /  20.4 °C 63.9 °F /  17.7 °C 30.1in /  1017.6hPa Este 1.5mph /  2.4km/h 5mph /  8km/h 84% 0in /  0.0mm
03:34 68.7 °F /  20.4 °C 63.7 °F /  17.6 °C 30.1in /  1017.6hPa Este 1.8mph /  2.9km/h 3.6mph /  5.8km/h 84% 0in /  0.0mm
03:39 68.7 °F /  20.4 °C 63.7 °F /  17.6 °C 30.1in /  1017.5hPa Este 1.9mph /  3km/h 4mph /  6.4km/h 84% 0in /  0.0mm
03:44 68.7 °F /  20.4 °C 63.7 °F /  17.6 °C 30.1in /  1017.5hPa SE 2mph /  3.2km/h 4.6mph /  7.4km/h 84% 0in /  0.0mm
03:49 68.7 °F /  20.4 °C 63.7 °F /  17.6 °C 30.1in /  1017.5hPa SE 2.1mph /  3.3km/h 5mph /  8km/h 84% 0in /  0.0mm
03:54 68.7 °F /  20.4 °C 63.7 °F /  17.6 °C 30.1in /  1017.5hPa SE 2.4mph /  3.9km/h 5mph /  8km/h 84% 0in /  0.0mm
03:59 68.7 °F /  20.4 °C 63.7 °F /  17.6 °C 30.1in /  1017.5hPa SE 2.4mph /  3.9km/h 4mph /  6.4km/h 84% 0in /  0.0mm
04:04 68.7 °F /  20.4 °C 63.7 °F /  17.6 °C 30.1in /  1017.5hPa SE 2.4mph /  3.9km/h 4mph /  6.4km/h 84% 0in /  0.0mm
04:09 68.9 °F /  20.5 °C 63.9 °F /  17.7 °C 30.1in /  1017.5hPa SE 2.2mph /  3.5km/h 3.6mph /  5.8km/h 84% 0in /  0.0mm
04:14 69.1 °F /  20.6 °C 63.9 °F /  17.7 °C 30.1in /  1017.5hPa SE 1.4mph /  2.2km/h 4mph /  6.4km/h 83.8% 0in /  0.0mm
04:19 69.1 °F /  20.6 °C 63.7 °F /  17.6 °C 30.1in /  1017.5hPa SE 1.5mph /  2.4km/h 4mph /  6.4km/h 83% 0in /  0.0mm
04:24 69.1 °F /  20.6 °C 63.7 °F /  17.6 °C 30.1in /  1017.5hPa SE 2mph /  3.2km/h 4.6mph /  7.4km/h 83% 0in /  0.0mm
04:29 69.3 °F /  20.7 °C 63.9 °F /  17.7 °C 30.1in /  1017.5hPa SSE 2.1mph /  3.4km/h 5mph /  8km/h 83% 0in /  0.0mm
04:34 69.3 °F /  20.7 °C 63.9 °F /  17.7 °C 30.1in /  1017.5hPa SSE 2.4mph /  3.9km/h 5mph /  8km/h 83% 0in /  0.0mm
04:39 69.3 °F /  20.7 °C 63.5 °F /  17.5 °C 30in /  1017.4hPa SSE 2.3mph /  3.7km/h 4mph /  6.4km/h 82.2% 0in /  0.0mm
04:44 69.3 °F /  20.7 °C 63.9 °F /  17.7 °C 30in /  1017.4hPa Sur 2mph /  3.2km/h 4.6mph /  7.4km/h 83% 0in /  0.0mm
04:49 69.4 °F /  20.8 °C 63.9 °F /  17.7 °C 30.1in /  1017.5hPa Sur 2.2mph /  3.5km/h 5.8mph /  9.3km/h 82.7% 0in /  0.0mm
04:54 69.4 °F /  20.8 °C 63.9 °F /  17.7 °C 30.1in /  1017.5hPa SE 2.9mph /  4.7km/h 6mph /  9.7km/h 82.6% 0in /  0.0mm
04:59 69.4 °F /  20.8 °C 63.7 °F /  17.6 °C 30.1in /  1017.5hPa SSO 2.7mph /  4.3km/h 4.7mph /  7.6km/h 82% 0in /  0.0mm
05:04 69.4 °F /  20.8 °C 63.7 °F /  17.6 °C 30.1in /  1017.5hPa SSO 2mph /  3.2km/h 5mph /  8km/h 82% 0in /  0.0mm
05:09 69.4 °F /  20.8 °C 63.7 °F /  17.6 °C 30in /  1017.3hPa SSO 2.2mph /  3.5km/h 5mph /  8km/h 82% 0in /  0.0mm
05:14 69.6 °F /  20.9 °C 63.9 °F /  17.7 °C 30in /  1017.3hPa SSO 2.9mph /  4.7km/h 5mph /  8km/h 82% 0in /  0.0mm
05:19 69.6 °F /  20.9 °C 63.9 °F /  17.7 °C 30in /  1017.3hPa SSO 2.7mph /  4.4km/h 4mph /  6.4km/h 82% 0in /  0.0mm
05:24 69.6 °F /  20.9 °C 63.9 °F /  17.7 °C 30in /  1017.3hPa SSO 2mph /  3.2km/h 5mph /  8km/h 82% 0in /  0.0mm
05:29 69.8 °F /  21 °C 64 °F /  17.8 °C 30in /  1017.3hPa SSO 2mph /  3.2km/h 5mph /  8km/h 82% 0in /  0.0mm
05:34 69.8 °F /  21 °C 64 °F /  17.8 °C 30in /  1017.3hPa SO 2mph /  3.2km/h 4mph /  6.4km/h 82% 0in /  0.0mm
05:39 70 °F /  21.1 °C 64.2 °F /  17.9 °C 30in /  1017.3hPa Sur 2.1mph /  3.3km/h 5mph /  8km/h 82% 0in /  0.0mm
05:44 70 °F /  21.1 °C 64.2 °F /  17.9 °C 30in /  1017.3hPa SSO 2.4mph /  3.9km/h 5.2mph /  8.4km/h 82% 0in /  0.0mm
05:49 70 °F /  21.1 °C 64.2 °F /  17.9 °C 30in /  1017.4hPa SSO 2.4mph /  3.9km/h 5mph /  8km/h 82% 0in /  0.0mm
05:54 69.8 °F /  21 °C 64 °F /  17.8 °C 30in /  1017.4hPa Sur 2.4mph /  3.9km/h 5mph /  8km/h 82% 0in /  0.0mm
05:59 69.8 °F /  21 °C 64 °F /  17.8 °C 30in /  1017.4hPa SSO 2.4mph /  3.9km/h 5mph /  8km/h 82% 0in /  0.0mm
06:04 69.8 °F /  21 °C 64 °F /  17.8 °C 30.1in /  1017.5hPa Sur 2.4mph /  3.9km/h 3.6mph /  5.8km/h 82% 0in /  0.0mm
06:09 69.6 °F /  20.9 °C 63.9 °F /  17.7 °C 30.1in /  1017.5hPa SSO 2.4mph /  3.9km/h 4.7mph /  7.6km/h 82% 0in /  0.0mm
06:14 69.6 °F /  20.9 °C 63.9 °F /  17.7 °C 30.1in /  1017.5hPa SSO 2.4mph /  3.9km/h 5mph /  8km/h 82% 0in /  0.0mm
06:19 69.6 °F /  20.9 °C 63.9 °F /  17.7 °C 30.1in /  1017.6hPa SSO 2.6mph /  4.2km/h 5.2mph /  8.4km/h 82% 0in /  0.0mm
06:24 69.6 °F /  20.9 °C 63.9 °F /  17.7 °C 30.1in /  1017.6hPa Sur 3.6mph /  5.8km/h 5.2mph /  8.4km/h 82% 0in /  0.0mm
06:29 69.6 °F /  20.9 °C 63.9 °F /  17.7 °C 30.1in /  1017.6hPa Sur 3.4mph /  5.5km/h 5mph /  8km/h 82% 0in /  0.0mm
06:34 69.6 °F /  20.9 °C 63.9 °F /  17.7 °C 30.1in /  1017.7hPa Sur 2.9mph /  4.7km/h 5.8mph /  9.3km/h 82% 0in /  0.0mm
06:39 69.6 °F /  20.9 °C 63.9 °F /  17.7 °C 30.1in /  1017.7hPa SSO 3mph /  4.9km/h 6mph /  9.7km/h 82% 0in /  0.0mm
06:44 69.6 °F /  20.9 °C 63.9 °F /  17.7 °C 30.1in /  1017.7hPa SSE 3.6mph /  5.8km/h 6mph /  9.7km/h 82% 0in /  0.0mm
06:49 69.6 °F /  20.9 °C 63.9 °F /  17.7 °C 30.1in /  1017.8hPa Sur 3.5mph /  5.6km/h 6.9mph /  11.1km/h 82% 0in /  0.0mm
06:54 69.6 °F /  20.9 °C 63.9 °F /  17.7 °C 30.1in /  1017.8hPa SSO 3.1mph /  5km/h 7mph /  11.3km/h 82% 0in /  0.0mm
06:59 69.4 °F /  20.8 °C 63.9 °F /  17.7 °C 30.1in /  1017.8hPa Sur 3.3mph /  5.3km/h 7mph /  11.3km/h 82.4% 0in /  0.0mm
07:04 69.6 °F /  20.9 °C 64.2 °F /  17.9 °C 30.1in /  1017.8hPa Sur 4mph /  6.4km/h 5.2mph /  8.4km/h 83% 0in /  0.0mm
07:09 69.6 °F /  20.9 °C 64.2 °F /  17.9 °C 30.1in /  1017.8hPa SO 3.9mph /  6.3km/h 6.2mph /  10km/h 83% 0in /  0.0mm
07:14 69.6 °F /  20.9 °C 64.2 °F /  17.9 °C 30.1in /  1017.8hPa Sur 3.6mph /  5.8km/h 6mph /  9.7km/h 83% 0in /  0.0mm
07:19 69.6 °F /  20.9 °C 64.2 °F /  17.9 °C 30.1in /  1018.0hPa ENE 3.5mph /  5.6km/h 5mph /  8km/h 83% 0in /  0.0mm
07:24 69.4 °F /  20.8 °C 64 °F /  17.8 °C 30.1in /  1018.0hPa Este 2.9mph /  4.7km/h 4mph /  6.4km/h 83% 0in /  0.0mm
07:29 69.3 °F /  20.7 °C 64 °F /  17.8 °C 30.1in /  1018.0hPa SSE 2.9mph /  4.6km/h 4.6mph /  7.4km/h 83.5% 0in /  0.0mm
07:34 69.3 °F /  20.7 °C 64.2 °F /  17.9 °C 30.1in /  1018.1hPa SSO 2.4mph /  3.9km/h 5mph /  8km/h 84% 0in /  0.0mm
07:39 69.3 °F /  20.7 °C 64 °F /  17.8 °C 30.1in /  1018.1hPa SSO 2.3mph /  3.7km/h 5mph /  8km/h 84% 0in /  0.0mm
07:44 69.1 °F /  20.6 °C 64 °F /  17.8 °C 30.1in /  1018.1hPa SSO 1.8mph /  2.9km/h 2.3mph /  3.7km/h 84% 0in /  0.0mm
07:49 69.1 °F /  20.6 °C 64 °F /  17.8 °C 30.1in /  1018.2hPa SSO 1.5mph /  2.4km/h 1mph /  1.6km/h 84% 0in /  0.0mm
07:54 68.9 °F /  20.5 °C 64 °F /  17.8 °C 30.1in /  1018.2hPa Calm   1.4mph /  2.3km/h 84.4% 0in /  0.0mm
07:59 68.9 °F /  20.5 °C 64.2 °F /  17.9 °C 30.1in /  1018.2hPa Calm   1.4mph /  2.3km/h 85% 0in /  0.0mm
08:04 68.7 °F /  20.4 °C 64 °F /  17.8 °C 30.1in /  1018.2hPa Calm   2.4mph /  3.9km/h 85% 0in /  0.0mm
08:09 68.7 °F /  20.4 °C 64 °F /  17.8 °C 30.1in /  1018.2hPa Calm   2.3mph /  3.7km/h 85% 0in /  0.0mm
08:14 68.7 °F /  20.4 °C 64 °F /  17.8 °C 30.1in /  1018.2hPa Calm   2.4mph /  3.9km/h 85% 0in /  0.0mm
08:19 68.7 °F /  20.4 °C 64 °F /  17.8 °C 30.1in /  1018.4hPa Calm   2.3mph /  3.7km/h 85% 0in /  0.0mm
08:24 68.7 °F /  20.4 °C 64 °F /  17.8 °C 30.1in /  1018.4hPa Calm   2.9mph /  4.7km/h 85% 0in /  0.0mm
08:29 68.5 °F /  20.3 °C 64 °F /  17.8 °C 30.1in /  1018.4hPa SSO 0.2mph /  0.4km/h 3.5mph /  5.6km/h 85.3% 0in /  0.0mm
08:34 68.5 °F /  20.3 °C 64.2 °F /  17.9 °C 30.1in /  1018.5hPa Sur 1.4mph /  2.2km/h 3mph /  4.8km/h 86% 0in /  0.0mm
08:39 68.5 °F /  20.3 °C 64.2 °F /  17.9 °C 30.1in /  1018.5hPa SSE 1.1mph /  1.8km/h 3mph /  4.8km/h 86% 0in /  0.0mm
08:44 68.5 °F /  20.3 °C 64.2 °F /  17.9 °C 30.1in /  1018.5hPa Calm   4.6mph /  7.4km/h 86% 0in /  0.0mm
08:49 68.5 °F /  20.3 °C 64.2 °F /  17.9 °C 30.1in /  1018.7hPa SE 0.4mph /  0.7km/h 5.2mph /  8.4km/h 86% 0in /  0.0mm
08:54 68.5 °F /  20.3 °C 64.2 °F /  17.9 °C 30.1in /  1018.7hPa SE 2.4mph /  3.9km/h 5.2mph /  8.4km/h 86% 0in /  0.0mm
08:59 68.4 °F /  20.2 °C 64 °F /  17.8 °C 30.1in /  1018.7hPa SE 2.5mph /  4.1km/h 5.9mph /  9.5km/h 86% 0in /  0.0mm
09:04 68.5 °F /  20.3 °C 64.2 °F /  17.9 °C 30.1in /  1018.9hPa SE 3.1mph /  5km/h 6mph /  9.7km/h 86% 0in /  0.0mm
09:09 68.5 °F /  20.3 °C 64.2 °F /  17.9 °C 30.1in /  1018.9hPa SSE 3.3mph /  5.3km/h 6.9mph /  11.1km/h 86% 0in /  0.0mm
09:14 68.9 °F /  20.5 °C 64.4 °F /  18 °C 30.1in /  1018.9hPa SSE 4mph /  6.4km/h 7mph /  11.3km/h 86% 0in /  0.0mm
09:19 69.3 °F /  20.7 °C 64.6 °F /  18.1 °C 30.1in /  1019.2hPa SSE 3.9mph /  6.3km/h 6mph /  9.7km/h 85.4% 0in /  0.0mm
09:24 69.6 °F /  20.9 °C 64.8 °F /  18.2 °C 30.1in /  1019.2hPa Sur 3.6mph /  5.8km/h 6mph /  9.7km/h 84.5% 0in /  0.0mm
09:29 70 °F /  21.1 °C 64.9 °F /  18.3 °C 30.1in /  1019.2hPa Sur 3.7mph /  5.9km/h 6mph /  9.7km/h 83.6% 0in /  0.0mm
09:34 70.3 °F /  21.3 °C 64.9 °F /  18.3 °C 30.1in /  1019.4hPa SSE 4mph /  6.4km/h 6mph /  9.7km/h 83% 0in /  0.0mm
09:39 70.9 °F /  21.6 °C 65.3 °F /  18.5 °C 30.1in /  1019.4hPa SSE 3.9mph /  6.2km/h 5mph /  8km/h 82.5% 0in /  0.0mm
09:44 71.2 °F /  21.8 °C 65.3 °F /  18.5 °C 30.1in /  1019.4hPa SSE 2.9mph /  4.7km/h 5.2mph /  8.4km/h 81.2% 0in /  0.0mm
09:49 71.8 °F /  22.1 °C 65.3 °F /  18.5 °C 30.1in /  1019.6hPa SSE 2.9mph /  4.7km/h 5mph /  8km/h 80% 0in /  0.0mm
09:54 72.3 °F /  22.4 °C 65.5 °F /  18.6 °C 30.1in /  1019.6hPa SE 2.9mph /  4.7km/h 5mph /  8km/h 79.1% 0in /  0.0mm
09:59 73 °F /  22.8 °C 65.7 °F /  18.7 °C 30.1in /  1019.6hPa SE 2.6mph /  4.2km/h 5mph /  8km/h 77.9% 0in /  0.0mm
10:04 73.6 °F /  23.1 °C 65.5 °F /  18.6 °C 30.1in /  1019.8hPa ESE 1.8mph /  2.9km/h 5.2mph /  8.4km/h 76% 0in /  0.0mm
10:09 73.4 °F /  23 °C 65.1 °F /  18.4 °C 30.1in /  1019.8hPa Este 2.1mph /  3.3km/h 5.8mph /  9.3km/h 75.6% 0in /  0.0mm
10:14 73 °F /  22.8 °C 65.1 °F /  18.4 °C 30.1in /  1019.8hPa Este 3.1mph /  5km/h 6mph /  9.7km/h 76.4% 0in /  0.0mm
10:19 73.2 °F /  22.9 °C 65.1 °F /  18.4 °C 30.1in /  1019.9hPa Este 3mph /  4.9km/h 5.8mph /  9.3km/h 75.9% 0in /  0.0mm
10:24 73.2 °F /  22.9 °C 65.1 °F /  18.4 °C 30.1in /  1019.9hPa ESE 2.9mph /  4.7km/h 6mph /  9.7km/h 76% 0in /  0.0mm
10:29 73.4 °F /  23 °C 65.3 °F /  18.5 °C 30.1in /  1019.9hPa Este 2.9mph /  4.7km/h 6mph /  9.7km/h 75.8% 0in /  0.0mm
10:34 73.8 °F /  23.2 °C 65.3 °F /  18.5 °C 30.1in /  1020.0hPa NNE 2.9mph /  4.7km/h 6mph /  9.7km/h 75% 0in /  0.0mm
10:39 73.9 °F /  23.3 °C 65.5 °F /  18.6 °C 30.1in /  1020.0hPa NNE 2.9mph /  4.7km/h 5.8mph /  9.3km/h 75% 0in /  0.0mm
10:44 73.9 °F /  23.3 °C 65.5 °F /  18.6 °C 30.1in /  1020.0hPa NNE 2.9mph /  4.7km/h 6mph /  9.7km/h 74.6% 0in /  0.0mm
10:49 73.9 °F /  23.3 °C 65.1 °F /  18.4 °C 30.1in /  1020.1hPa NE 3mph /  4.9km/h 8.1mph /  13km/h 73.6% 0in /  0.0mm
10:54 73.6 °F /  23.1 °C 64.9 °F /  18.3 °C 30.1in /  1020.1hPa NNE 3.6mph /  5.8km/h 8.5mph /  13.7km/h 74.5% 0in /  0.0mm
10:59 73.2 °F /  22.9 °C 65.1 °F /  18.4 °C 30.1in /  1020.1hPa ENE 3.7mph /  5.9km/h 9mph /  14.5km/h 75.7% 0in /  0.0mm
11:04 73.8 °F /  23.2 °C 65.3 °F /  18.5 °C 30.1in /  1020.1hPa ENE 4mph /  6.4km/h 6mph /  9.7km/h 75% 0in /  0.0mm
11:09 73.9 °F /  23.3 °C 65.3 °F /  18.5 °C 30.1in /  1020.0hPa SE 3.9mph /  6.2km/h 6.2mph /  10km/h 74.3% 0in /  0.0mm
11:14 74.5 °F /  23.6 °C 65.3 °F /  18.5 °C 30.1in /  1020.0hPa ENE 3.1mph /  5km/h 8.1mph /  13km/h 73.4% 0in /  0.0mm
11:19 74.5 °F /  23.6 °C 64.9 °F /  18.3 °C 30.1in /  1020.1hPa NE 3.4mph /  5.5km/h 8.5mph /  13.7km/h 72.4% 0in /  0.0mm
11:24 74.5 °F /  23.6 °C 65.3 °F /  18.5 °C 30.1in /  1020.1hPa NE 4.7mph /  7.6km/h 9mph /  14.5km/h 73% 0in /  0.0mm
11:29 74.7 °F /  23.7 °C 65.3 °F /  18.5 °C 30.1in /  1020.1hPa NE 4.5mph /  7.2km/h 6mph /  9.7km/h 72.8% 0in /  0.0mm
11:34 75 °F /  23.9 °C 65.3 °F /  18.5 °C 30.1in /  1020.1hPa Este 3.1mph /  5km/h 6mph /  9.7km/h 72% 0in /  0.0mm
11:39 75.6 °F /  24.2 °C 65.1 °F /  18.4 °C 30.1in /  1020.1hPa ENE 3.2mph /  5.1km/h 6.9mph /  11.1km/h 70.4% 0in /  0.0mm
11:44 75.9 °F /  24.4 °C 65.1 °F /  18.4 °C 30.1in /  1020.1hPa NE 3.6mph /  5.8km/h 8.1mph /  13km/h 69.5% 0in /  0.0mm
11:49 75.9 °F /  24.4 °C 64.6 °F /  18.1 °C 30.1in /  1020.1hPa NNE 3.7mph /  6km/h 11.8mph /  19km/h 67.9% 0in /  0.0mm
11:54 75.6 °F /  24.2 °C 64.2 °F /  17.9 °C 30.1in /  1020.0hPa NNE 4.3mph /  6.9km/h 12mph /  19.3km/h 67.7% 0in /  0.0mm
11:59 75.4 °F /  24.1 °C 64.2 °F /  17.9 °C 30.1in /  1020.0hPa NE 4.4mph /  7.1km/h 9.7mph /  15.6km/h 68.4% 0in /  0.0mm
12:04 75.2 °F /  24 °C 63.7 °F /  17.6 °C 30.1in /  1020.0hPa NE 4.7mph /  7.6km/h 10.4mph /  16.7km/h 67.3% 0in /  0.0mm
12:09 75.4 °F /  24.1 °C 63.5 °F /  17.5 °C 30.1in /  1019.9hPa ENE 5mph /  8km/h 10.4mph /  16.7km/h 66.8% 0in /  0.0mm
12:14 75.9 °F /  24.4 °C 63.7 °F /  17.6 °C 30.1in /  1019.9hPa ENE 6.2mph /  10km/h 11.5mph /  18.5km/h 66.1% 0in /  0.0mm
12:19 76.3 °F /  24.6 °C 63.5 °F /  17.5 °C 30.1in /  1019.9hPa NE 6mph /  9.7km/h 12mph /  19.3km/h 64.8% 0in /  0.0mm
12:24 76.3 °F /  24.6 °C 64.2 °F /  17.9 °C 30.1in /  1019.8hPa NNE 5.2mph /  8.4km/h 12mph /  19.3km/h 66.1% 0in /  0.0mm
12:29 76.3 °F /  24.6 °C 63.5 °F /  17.5 °C 30.1in /  1019.8hPa NNE 5.5mph /  8.9km/h 12mph /  19.3km/h 64.4% 0in /  0.0mm
12:34 76.3 °F /  24.6 °C 63.5 °F /  17.5 °C 30.1in /  1019.8hPa NNE 6.9mph /  11.1km/h 12mph /  19.3km/h 64.7% 0in /  0.0mm
12:39 76.1 °F /  24.5 °C 63.5 °F /  17.5 °C 30.1in /  1019.8hPa NE 6.6mph /  10.6km/h 10.4mph /  16.7km/h 65% 0in /  0.0mm
12:44 75.9 °F /  24.4 °C 63.5 °F /  17.5 °C 30.1in /  1019.8hPa NE 5.2mph /  8.4km/h 9mph /  14.5km/h 65.3% 0in /  0.0mm
12:49 75.9 °F /  24.4 °C 63.3 °F /  17.4 °C 30.1in /  1019.8hPa NNE 5.1mph /  8.2km/h 7mph /  11.3km/h 65.1% 0in /  0.0mm
12:54 75.9 °F /  24.4 °C 63 °F /  17.2 °C 30.1in /  1019.8hPa ENE 4.7mph /  7.6km/h 11.5mph /  18.5km/h 64.2% 0in /  0.0mm
12:59 76.1 °F /  24.5 °C 63 °F /  17.2 °C 30.1in /  1019.8hPa NE 5mph /  8.1km/h 12mph /  19.3km/h 63.9% 0in /  0.0mm
13:04 76.5 °F /  24.7 °C 63.3 °F /  17.4 °C 30.1in /  1019.8hPa Este 5.9mph /  9.5km/h 9.2mph /  14.8km/h 64% 0in /  0.0mm
13:09 76.8 °F /  24.9 °C 63.5 °F /  17.5 °C 30.1in /  1019.7hPa NE 5.5mph /  8.9km/h 9mph /  14.5km/h 63.6% 0in /  0.0mm
13:14 77 °F /  25 °C 63.3 °F /  17.4 °C 30.1in /  1019.7hPa NE 4mph /  6.5km/h 11.5mph /  18.5km/h 63% 0in /  0.0mm
13:19 77.2 °F /  25.1 °C 63.5 °F /  17.5 °C 30.1in /  1019.7hPa NE 4.3mph /  6.9km/h 12mph /  19.3km/h 62.8% 0in /  0.0mm
13:24 77.4 °F /  25.2 °C 63.5 °F /  17.5 °C 30.1in /  1019.4hPa ENE 5.4mph /  8.7km/h 9.2mph /  14.8km/h 62.4% 0in /  0.0mm
13:29 77.9 °F /  25.5 °C 63.7 °F /  17.6 °C 30.1in /  1019.4hPa NE 5.4mph /  8.7km/h 10.4mph /  16.7km/h 61.7% 0in /  0.0mm
13:34 77.5 °F /  25.3 °C 63.1 °F /  17.3 °C 30.1in /  1019.4hPa NNE 5.4mph /  8.7km/h 10.2mph /  16.4km/h 60.9% 0in /  0.0mm
13:39 77.5 °F /  25.3 °C 62.6 °F /  17 °C 30.1in /  1019.4hPa NNE 5.4mph /  8.7km/h 10mph /  16.1km/h 60% 0in /  0.0mm
13:44 77.5 °F /  25.3 °C 63.1 °F /  17.3 °C 30.1in /  1019.4hPa NNE 5.4mph /  8.7km/h 9.2mph /  14.8km/h 61.2% 0in /  0.0mm
13:49 77.7 °F /  25.4 °C 63.5 °F /  17.5 °C 30.1in /  1019.4hPa NE 5.4mph /  8.7km/h 11.5mph /  18.5km/h 61.4% 0in /  0.0mm
13:54 77.5 °F /  25.3 °C 62.8 °F /  17.1 °C 30.1in /  1019.3hPa NNE 5.4mph /  8.7km/h 13mph /  20.9km/h 60.5% 0in /  0.0mm
13:59 77.2 °F /  25.1 °C 63.1 °F /  17.3 °C 30.1in /  1019.3hPa NNE 5.9mph /  9.5km/h 13mph /  20.9km/h 61.8% 0in /  0.0mm
14:04 77.2 °F /  25.1 °C 63.1 °F /  17.3 °C 30.1in /  1019.3hPa NE 7.6mph /  12.2km/h 12mph /  19.3km/h 62% 0in /  0.0mm
14:09 77.4 °F /  25.2 °C 63 °F /  17.2 °C 30.1in /  1019.0hPa NE 7.4mph /  11.9km/h 12.7mph /  20.4km/h 61.3% 0in /  0.0mm
14:14 77.4 °F /  25.2 °C 63 °F /  17.2 °C 30.1in /  1019.0hPa ENE 6.4mph /  10.3km/h 13mph /  20.9km/h 61.3% 0in /  0.0mm
14:19 77.4 °F /  25.2 °C 63 °F /  17.2 °C 30.1in /  1019.0hPa Este 6mph /  9.6km/h 8mph /  12.9km/h 60.9% 0in /  0.0mm
14:24 77.7 °F /  25.4 °C 63 °F /  17.2 °C 30.1in /  1019.0hPa NE 4mph /  6.5km/h 10.7mph /  17.2km/h 60.3% 0in /  0.0mm
14:29 77.5 °F /  25.3 °C 62.6 °F /  17 °C 30.1in /  1018.9hPa NE 4.3mph /  6.9km/h 11mph /  17.7km/h 60% 0in /  0.0mm
14:34 77.5 °F /  25.3 °C 62.4 °F /  16.9 °C 30.1in /  1018.9hPa NE 5.4mph /  8.7km/h 9mph /  14.5km/h 59.6% 0in /  0.0mm
14:39 77.5 °F /  25.3 °C 62.2 °F /  16.8 °C 30.1in /  1018.7hPa NE 5.1mph /  8.2km/h 8mph /  12.9km/h 59.3% 0in /  0.0mm
14:44 77.7 °F /  25.4 °C 61.9 °F /  16.6 °C 30.1in /  1018.7hPa NE 3.6mph /  5.8km/h 9.2mph /  14.8km/h 58.2% 0in /  0.0mm
14:49 77.7 °F /  25.4 °C 61.7 °F /  16.5 °C 30.1in /  1018.7hPa NNE 3.9mph /  6.3km/h 9.2mph /  14.8km/h 57.9% 0in /  0.0mm
14:54 77.7 °F /  25.4 °C 61.7 °F /  16.5 °C 30.1in /  1018.5hPa NE 5.4mph /  8.7km/h 9mph /  14.5km/h 57.8% 0in /  0.0mm
14:59 77.7 °F /  25.4 °C 61.3 °F /  16.3 °C 30.1in /  1018.5hPa NNE 5.1mph /  8.2km/h 7mph /  11.3km/h 57% 0in /  0.0mm
15:04 77.9 °F /  25.5 °C 61.5 °F /  16.4 °C 30.1in /  1018.5hPa NE 4mph /  6.5km/h 8.1mph /  13km/h 57.1% 0in /  0.0mm
15:09 78.3 °F /  25.7 °C 62.1 °F /  16.7 °C 30.1in /  1018.4hPa NE 4.2mph /  6.7km/h 11.5mph /  18.5km/h 57.6% 0in /  0.0mm
15:14 78.4 °F /  25.8 °C 62.1 °F /  16.7 °C 30.1in /  1018.4hPa NE 4.7mph /  7.6km/h 13.8mph /  22.2km/h 57.4% 0in /  0.0mm
15:19 78.6 °F /  25.9 °C 61.9 °F /  16.6 °C 30.1in /  1018.4hPa NE 5.1mph /  8.2km/h 14mph /  22.5km/h 56.8% 0in /  0.0mm
15:24 78.6 °F /  25.9 °C 61.9 °F /  16.6 °C 30.1in /  1018.2hPa NE 6.9mph /  11.1km/h 11.5mph /  18.5km/h 56.6% 0in /  0.0mm
15:29 78.4 °F /  25.8 °C 63 °F /  17.2 °C 30.1in /  1018.2hPa NE 6.8mph /  11km/h 13.5mph /  21.7km/h 58.8% 0in /  0.0mm
15:34 78.6 °F /  25.9 °C 63.5 °F /  17.5 °C 30.1in /  1018.2hPa NE 6.4mph /  10.3km/h 15.2mph /  24.5km/h 59.7% 0in /  0.0mm
15:39 78.8 °F /  26 °C 63.7 °F /  17.6 °C 30.1in /  1018.1hPa NE 6.9mph /  11.1km/h 17.3mph /  27.8km/h 60% 0in /  0.0mm
15:44 79 °F /  26.1 °C 63.9 °F /  17.7 °C 30.1in /  1018.1hPa NE 9.2mph /  14.8km/h 17mph /  27.4km/h 59.7% 0in /  0.0mm
15:49 79.2 °F /  26.2 °C 63.7 °F /  17.6 °C 30.1in /  1018.1hPa ENE 8.9mph /  14.3km/h 14mph /  22.5km/h 59% 0in /  0.0mm
15:54 79.3 °F /  26.3 °C 64.2 °F /  17.9 °C 30.1in /  1018.1hPa NE 7.4mph /  11.9km/h 13mph /  20.9km/h 60.2% 0in /  0.0mm
15:59 79.3 °F /  26.3 °C 64.4 °F /  18 °C 30.1in /  1018.1hPa ENE 7.3mph /  11.7km/h 13mph /  20.9km/h 60.5% 0in /  0.0mm
16:04 79.3 °F /  26.3 °C 64.2 °F /  17.9 °C 30.1in /  1018.1hPa ENE 6.9mph /  11.1km/h 12mph /  19.3km/h 60.2% 0in /  0.0mm
16:09 79.3 °F /  26.3 °C 64 °F /  17.8 °C 30.1in /  1018.1hPa NE 6.8mph /  10.9km/h 11.5mph /  18.5km/h 59.6% 0in /  0.0mm
16:14 79.2 °F /  26.2 °C 64 °F /  17.8 °C 30.1in /  1018.1hPa NE 6.2mph /  10km/h 12mph /  19.3km/h 59.8% 0in /  0.0mm
16:19 79.2 °F /  26.2 °C 64 °F /  17.8 °C 30.1in /  1018.1hPa Este 6.3mph /  10.2km/h 12mph /  19.3km/h 60% 0in /  0.0mm
16:24 79.2 °F /  26.2 °C 64 °F /  17.8 °C 30.1in /  1018.0hPa Este 6.9mph /  11.1km/h 11.5mph /  18.5km/h 60% 0in /  0.0mm
16:29 78.8 °F /  26 °C 64.2 °F /  17.9 °C 30.1in /  1018.0hPa Este 6.9mph /  11.1km/h 13.8mph /  22.2km/h 60.7% 0in /  0.0mm
16:34 79 °F /  26.1 °C 64.8 °F /  18.2 °C 30.1in /  1018.0hPa ENE 6.9mph /  11.1km/h 14mph /  22.5km/h 61.8% 0in /  0.0mm
16:39 79.2 °F /  26.2 °C 64.6 °F /  18.1 °C 30.1in /  1017.9hPa NE 6.8mph /  11km/h 12.7mph /  20.4km/h 61.1% 0in /  0.0mm
16:44 78.8 °F /  26 °C 64.6 °F /  18.1 °C 30.1in /  1017.9hPa NE 6.4mph /  10.3km/h 15mph /  24.1km/h 61.5% 0in /  0.0mm
16:49 78.4 °F /  25.8 °C 64.4 °F /  18 °C 30.1in /  1017.9hPa NE 6.6mph /  10.7km/h 15mph /  24.1km/h 62.2% 0in /  0.0mm
16:54 78.1 °F /  25.6 °C 64.4 °F /  18 °C 30.1in /  1017.9hPa NE 7.6mph /  12.2km/h 14mph /  22.5km/h 62.7% 0in /  0.0mm
16:59 77.9 °F /  25.5 °C 64.2 °F /  17.9 °C 30.1in /  1017.9hPa ENE 7.6mph /  12.2km/h 13mph /  20.9km/h 63% 0in /  0.0mm
17:04 77.5 °F /  25.3 °C 64.2 °F /  17.9 °C 30.1in /  1018.0hPa NE 7.4mph /  11.9km/h 13.8mph /  22.2km/h 63.5% 0in /  0.0mm
17:09 77.5 °F /  25.3 °C 64.4 °F /  18 °C 30.1in /  1018.0hPa ENE 7.1mph /  11.4km/h 14mph /  22.5km/h 64% 0in /  0.0mm
17:14 77.5 °F /  25.3 °C 64 °F /  17.8 °C 30.1in /  1018.0hPa ENE 5.9mph /  9.5km/h 15mph /  24.1km/h 63.3% 0in /  0.0mm
17:19 77.5 °F /  25.3 °C 64 °F /  17.8 °C 30.1in /  1018.0hPa ENE 6mph /  9.6km/h 15mph /  24.1km/h 63.5% 0in /  0.0mm
17:24 77.4 °F /  25.2 °C 64.2 °F /  17.9 °C 30.1in /  1018.0hPa ENE 6.4mph /  10.3km/h 12mph /  19.3km/h 63.9% 0in /  0.0mm
17:29 77.5 °F /  25.3 °C 63.9 °F /  17.7 °C 30.1in /  1018.0hPa NE 6.4mph /  10.3km/h 13mph /  20.9km/h 63% 0in /  0.0mm
17:34 77.7 °F /  25.4 °C 63.9 °F /  17.7 °C 30.1in /  1018.0hPa NE 6.2mph /  10km/h 15.2mph /  24.5km/h 62.6% 0in /  0.0mm
17:39 77.5 °F /  25.3 °C 63.5 °F /  17.5 °C 30.1in /  1018.0hPa NE 6.7mph /  10.8km/h 15mph /  24.1km/h 62% 0in /  0.0mm
17:44 77.5 °F /  25.3 °C 63.9 °F /  17.7 °C 30.1in /  1018.0hPa ENE 8.7mph /  14km/h 15mph /  24.1km/h 63% 0in /  0.0mm
17:49 77.5 °F /  25.3 °C 63.7 °F /  17.6 °C 30.1in /  1018.2hPa NE 8.4mph /  13.5km/h 14.7mph /  23.7km/h 62.5% 0in /  0.0mm
17:54 77.5 °F /  25.3 °C 63.5 °F /  17.5 °C 30.1in /  1018.2hPa NE 6.9mph /  11.1km/h 15mph /  24.1km/h 62.2% 0in /  0.0mm
17:59 77.4 °F /  25.2 °C 63.9 °F /  17.7 °C 30.1in /  1018.2hPa NE 7.1mph /  11.4km/h 15mph /  24.1km/h 63% 0in /  0.0mm
18:04 77.5 °F /  25.3 °C 63.9 °F /  17.7 °C 30.1in /  1018.2hPa NE 7.6mph /  12.2km/h 15mph /  24.1km/h 62.8% 0in /  0.0mm
18:09 77.5 °F /  25.3 °C 63.5 °F /  17.5 °C 30.1in /  1018.2hPa NE 7.3mph /  11.8km/h 14mph /  22.5km/h 62% 0in /  0.0mm
18:14 77.4 °F /  25.2 °C 63 °F /  17.2 °C 30.1in /  1018.2hPa ENE 6.4mph /  10.3km/h 14mph /  22.5km/h 61.1% 0in /  0.0mm
18:19 77.4 °F /  25.2 °C 63 °F /  17.2 °C 30.1in /  1018.2hPa NE 6.7mph /  10.8km/h 13mph /  20.9km/h 61% 0in /  0.0mm
18:24 77.4 °F /  25.2 °C 63 °F /  17.2 °C 30.1in /  1018.2hPa ENE 8.1mph /  13km/h 15.2mph /  24.5km/h 61.5% 0in /  0.0mm
18:29 77 °F /  25 °C 63 °F /  17.2 °C 30.1in /  1018.2hPa NE 8mph /  12.9km/h 15mph /  24.1km/h 62% 0in /  0.0mm
18:34 77 °F /  25 °C 62.8 °F /  17.1 °C 30.1in /  1018.4hPa NE 7.6mph /  12.2km/h 13mph /  20.9km/h 61.4% 0in /  0.0mm
18:39 77 °F /  25 °C 62.2 °F /  16.8 °C 30.1in /  1018.4hPa ENE 7.3mph /  11.7km/h 12mph /  19.3km/h 60.7% 0in /  0.0mm
18:44 76.8 °F /  24.9 °C 62.4 °F /  16.9 °C 30.1in /  1018.4hPa ENE 5.9mph /  9.5km/h 10.4mph /  16.7km/h 61.4% 0in /  0.0mm
18:49 76.6 °F /  24.8 °C 62.6 °F /  17 °C 30.1in /  1018.4hPa ENE 5.8mph /  9.4km/h 11.5mph /  18.5km/h 62% 0in /  0.0mm
18:54 76.3 °F /  24.6 °C 62.4 °F /  16.9 °C 30.1in /  1018.4hPa ENE 5.4mph /  8.7km/h 12mph /  19.3km/h 62% 0in /  0.0mm
18:59 76.1 °F /  24.5 °C 62.6 °F /  17 °C 30.1in /  1018.4hPa ENE 5.4mph /  8.7km/h 10mph /  16.1km/h 62.9% 0in /  0.0mm
19:04 75.9 °F /  24.4 °C 62.4 °F /  16.9 °C 30.1in /  1018.5hPa ENE 5.4mph /  8.7km/h 10mph /  16.1km/h 63% 0in /  0.0mm
19:09 75.7 °F /  24.3 °C 62.4 °F /  16.9 °C 30.1in /  1018.5hPa ENE 5.4mph /  8.7km/h 10mph /  16.1km/h 63.5% 0in /  0.0mm
19:14 75.6 °F /  24.2 °C 62.8 °F /  17.1 °C 30.1in /  1018.5hPa ENE 5.4mph /  8.7km/h 9.2mph /  14.8km/h 64.3% 0in /  0.0mm
19:19 75.6 °F /  24.2 °C 63 °F /  17.2 °C 30.1in /  1018.6hPa ENE 5.3mph /  8.5km/h 9mph /  14.5km/h 65.1% 0in /  0.0mm
19:24 75.2 °F /  24 °C 63.1 °F /  17.3 °C 30.1in /  1018.6hPa ENE 4.7mph /  7.6km/h 8.5mph /  13.7km/h 66% 0in /  0.0mm
19:29 74.8 °F /  23.8 °C 63 °F /  17.2 °C 30.1in /  1018.6hPa NE 4.8mph /  7.7km/h 9.7mph /  15.6km/h 66.4% 0in /  0.0mm
19:34 74.7 °F /  23.7 °C 63 °F /  17.2 °C 30.1in /  1018.6hPa NE 5.2mph /  8.4km/h 11.5mph /  18.5km/h 67% 0in /  0.0mm
19:39 74.7 °F /  23.7 °C 63 °F /  17.2 °C 30.1in /  1018.6hPa NE 5.3mph /  8.6km/h 12mph /  19.3km/h 67% 0in /  0.0mm
19:44 74.5 °F /  23.6 °C 63.1 °F /  17.3 °C 30.1in /  1018.6hPa NE 5.9mph /  9.5km/h 10mph /  16.1km/h 67.9% 0in /  0.0mm
19:49 74.1 °F /  23.4 °C 63.3 °F /  17.4 °C 30.1in /  1018.8hPa NE 5.9mph /  9.5km/h 10.4mph /  16.7km/h 68.9% 0in /  0.0mm
19:54 73.9 °F /  23.3 °C 63.5 °F /  17.5 °C 30.1in /  1018.8hPa NE 5.9mph /  9.5km/h 9.7mph /  15.6km/h 69.9% 0in /  0.0mm
19:59 73.8 °F /  23.2 °C 63.7 °F /  17.6 °C 30.1in /  1018.8hPa NE 5.7mph /  9.2km/h 10mph /  16.1km/h 70.7% 0in /  0.0mm
20:04 73.8 °F /  23.2 °C 64 °F /  17.8 °C 30.1in /  1018.8hPa NE 5.2mph /  8.4km/h 9.2mph /  14.8km/h 71.7% 0in /  0.0mm
20:09 73.6 °F /  23.1 °C 64 °F /  17.8 °C 30.1in /  1018.8hPa NE 5.2mph /  8.4km/h 9mph /  14.5km/h 72.3% 0in /  0.0mm
20:14 73.2 °F /  22.9 °C 64 °F /  17.8 °C 30.1in /  1018.8hPa NE 5.2mph /  8.4km/h 7mph /  11.3km/h 73% 0in /  0.0mm
20:19 73 °F /  22.8 °C 64 °F /  17.8 °C 30.1in /  1018.9hPa NE 5mph /  8.1km/h 7mph /  11.3km/h 73.4% 0in /  0.0mm
20:24 73 °F /  22.8 °C 64.2 °F /  17.9 °C 30.1in /  1018.9hPa NE 4.3mph /  6.9km/h 8.1mph /  13km/h 74.1% 0in /  0.0mm
20:29 72.9 °F /  22.7 °C 64.6 °F /  18.1 °C 30.1in /  1018.9hPa NE 4.3mph /  6.9km/h 8mph /  12.9km/h 75% 0in /  0.0mm
20:34 72.7 °F /  22.6 °C 64.4 °F /  18 °C 30.1in /  1019.0hPa NE 4.3mph /  6.9km/h 7mph /  11.3km/h 75.2% 0in /  0.0mm
20:39 72.7 °F /  22.6 °C 64.6 °F /  18.1 °C 30.1in /  1019.0hPa NE 4.3mph /  6.9km/h 7mph /  11.3km/h 76% 0in /  0.0mm
20:44 72.5 °F /  22.5 °C 64.4 °F /  18 °C 30.1in /  1019.0hPa NE 4.3mph /  6.9km/h 7mph /  11.3km/h 76% 0in /  0.0mm
20:49 72.3 °F /  22.4 °C 64.6 °F /  18.1 °C 30.1in /  1019.0hPa NE 4.3mph /  6.9km/h 6.9mph /  11.1km/h 76.8% 0in /  0.0mm
20:54 72.1 °F /  22.3 °C 64.6 °F /  18.1 °C 30.1in /  1019.0hPa NE 4.3mph /  6.9km/h 7mph /  11.3km/h 77% 0in /  0.0mm
20:59 72 °F /  22.2 °C 64.6 °F /  18.1 °C 30.1in /  1019.0hPa NE 4.3mph /  6.9km/h 6.2mph /  10km/h 77.7% 0in /  0.0mm
21:04 72 °F /  22.2 °C 64.8 °F /  18.2 °C 30.1in /  1019.1hPa NE 4.3mph /  6.9km/h 6mph /  9.7km/h 78% 0in /  0.0mm
21:09 72 °F /  22.2 °C 64.8 °F /  18.2 °C 30.1in /  1019.1hPa NE 4.2mph /  6.8km/h 6.2mph /  10km/h 78% 0in /  0.0mm
21:14 72 °F /  22.2 °C 64.8 °F /  18.2 °C 30.1in /  1019.1hPa NE 4mph /  6.5km/h 7.4mph /  11.9km/h 78% 0in /  0.0mm
21:19 72 °F /  22.2 °C 64.8 °F /  18.2 °C 30.1in /  1019.3hPa NE 3.9mph /  6.2km/h 7mph /  11.3km/h 78% 0in /  0.0mm
21:24 72 °F /  22.2 °C 64.8 °F /  18.2 °C 30.1in /  1019.3hPa NE 3.1mph /  5km/h 6mph /  9.7km/h 78% 0in /  0.0mm
21:29 71.8 °F /  22.1 °C 64.6 °F /  18.1 °C 30.1in /  1019.3hPa NE 3.2mph /  5.1km/h 6mph /  9.7km/h 78.1% 0in /  0.0mm
21:34 71.8 °F /  22.1 °C 64.9 °F /  18.3 °C 30.1in /  1019.4hPa NE 3.6mph /  5.8km/h 6mph /  9.7km/h 79% 0in /  0.0mm
21:39 71.6 °F /  22 °C 64.8 °F /  18.2 °C 30.1in /  1019.4hPa NE 3.7mph /  5.9km/h 6.2mph /  10km/h 79% 0in /  0.0mm
21:44 71.6 °F /  22 °C 64.8 °F /  18.2 °C 30.1in /  1019.4hPa NE 4mph /  6.4km/h 6mph /  9.7km/h 79% 0in /  0.0mm
21:49 71.6 °F /  22 °C 64.8 °F /  18.2 °C 30.1in /  1019.5hPa NE 3.8mph /  6.1km/h 5mph /  8km/h 79% 0in /  0.0mm
21:54 71.6 °F /  22 °C 64.8 °F /  18.2 °C 30.1in /  1019.5hPa NE 2.9mph /  4.7km/h 5.2mph /  8.4km/h 79% 0in /  0.0mm
21:59 71.6 °F /  22 °C 64.8 °F /  18.2 °C 30.1in /  1019.5hPa NE 2.7mph /  4.3km/h 5mph /  8km/h 79% 0in /  0.0mm
22:04 71.6 °F /  22 °C 64.8 °F /  18.2 °C 30.1in /  1019.7hPa NE 2mph /  3.2km/h 3.5mph /  5.6km/h 79% 0in /  0.0mm
22:09 71.6 °F /  22 °C 64.8 °F /  18.2 °C 30.1in /  1019.7hPa NE 2mph /  3.2km/h 4mph /  6.4km/h 79% 0in /  0.0mm
22:14 71.4 °F /  21.9 °C 64.6 °F /  18.1 °C 30.1in /  1019.7hPa NE 2mph /  3.2km/h 4.6mph /  7.4km/h 79% 0in /  0.0mm
22:19 71.4 °F /  21.9 °C 64.6 °F /  18.1 °C 30.1in /  1019.7hPa ENE 2mph /  3.2km/h 5mph /  8km/h 79% 0in /  0.0mm
22:24 71.6 °F /  22 °C 64.6 °F /  18.1 °C 30.1in /  1019.7hPa ESE 2mph /  3.2km/h 3.6mph /  5.8km/h 79% 0in /  0.0mm
22:29 71.6 °F /  22 °C 64.8 °F /  18.2 °C 30.1in /  1019.7hPa ESE 2mph /  3.2km/h 4mph /  6.4km/h 79% 0in /  0.0mm
22:34 71.6 °F /  22 °C 64.8 °F /  18.2 °C 30.1in /  1019.9hPa ENE 2mph /  3.2km/h 4mph /  6.4km/h 79% 0in /  0.0mm
22:39 71.4 °F /  21.9 °C 64.6 °F /  18.1 °C 30.1in /  1019.9hPa ESE 2mph /  3.2km/h 3.6mph /  5.8km/h 79% 0in /  0.0mm
22:44 71.6 °F /  22 °C 64.8 °F /  18.2 °C 30.1in /  1019.9hPa Este 2mph /  3.2km/h 4mph /  6.4km/h 79% 0in /  0.0mm
22:49 71.6 °F /  22 °C 64.8 °F /  18.2 °C 30.1in /  1020.1hPa Este 1.6mph /  2.6km/h 2.3mph /  3.7km/h 79% 0in /  0.0mm
22:54 71.8 °F /  22.1 °C 64.9 °F /  18.3 °C 30.1in /  1020.1hPa Calm   2.4mph /  3.9km/h 79% 0in /  0.0mm
22:59 71.8 °F /  22.1 °C 64.9 °F /  18.3 °C 30.1in /  1020.1hPa Calm   3.1mph /  5km/h 79% 0in /  0.0mm
23:04 71.8 °F /  22.1 °C 64.9 °F /  18.3 °C 30.1in /  1020.1hPa Calm   4.6mph /  7.4km/h 79% 0in /  0.0mm
23:09 71.8 °F /  22.1 °C 64.9 °F /  18.3 °C 30.1in /  1020.1hPa ENE 0.4mph /  0.6km/h 5mph /  8km/h 79% 0in /  0.0mm
23:14 71.8 °F /  22.1 °C 64.9 °F /  18.3 °C 30.1in /  1020.1hPa NE 2mph /  3.2km/h 5mph /  8km/h 79% 0in /  0.0mm
23:19 71.6 °F /  22 °C 64.8 °F /  18.2 °C 30.1in /  1020.1hPa NE 2.1mph /  3.3km/h 5mph /  8km/h 79% 0in /  0.0mm
23:24 71.6 °F /  22 °C 64.8 °F /  18.2 °C 30.1in /  1020.0hPa NE 2.4mph /  3.9km/h 5mph /  8km/h 79% 0in /  0.0mm
23:29 71.6 °F /  22 °C 64.8 °F /  18.2 °C 30.1in /  1020.0hPa NE 2.2mph /  3.5km/h 3mph /  4.8km/h 79% 0in /  0.0mm
23:34 71.4 °F /  21.9 °C 64.6 °F /  18.1 °C 30.1in /  1020.1hPa NE 1.4mph /  2.2km/h 3.5mph /  5.6km/h 79% 0in /  0.0mm
23:39 71.4 °F /  21.9 °C 64.8 °F /  18.2 °C 30.1in /  1020.1hPa NE 1.4mph /  2.2km/h 3mph /  4.8km/h 79.4% 0in /  0.0mm
23:44 71.4 °F /  21.9 °C 64.9 °F /  18.3 °C 30.1in /  1020.1hPa NE 1.4mph /  2.2km/h 3.6mph /  5.8km/h 80% 0in /  0.0mm
23:49 71.4 °F /  21.9 °C 64.9 °F /  18.3 °C 30.1in /  1020.2hPa NNE 1.4mph /  2.3km/h 4mph /  6.4km/h 80% 0in /  0.0mm
23:54 71.2 °F /  21.8 °C 64.9 °F /  18.3 °C 30.1in /  1020.2hPa NNE 1.8mph /  2.9km/h 3mph /  4.8km/h 80% 0in /  0.0mm
23:59 71.2 °F /  21.8 °C 64.8 °F /  18.2 °C 30.1in /  1020.2hPa NNE 1.7mph /  2.8km/h 3.5mph /  5.6km/h 80% 0in /  0.0mm
Murcia-Puente Tocinos, España
Compliments of Weather Underground - 3 mb

La estación de MeteoMurcia.com, publica sus datos en los siguientes proyectos:

Weather Underground PWS IMURCIAP2 Meteoclimatic www.awekas.at

W3Counter
Web Analytics